createdAt,value
2023-03-12T00:00:58.055Z,993.78
2023-03-12T00:01:58.018Z,993.75
2023-03-12T00:02:58.122Z,993.79
2023-03-12T00:03:58.100Z,993.78
2023-03-12T00:04:57.988Z,993.80
2023-03-12T00:06:03.879Z,993.80
2023-03-12T00:06:58.980Z,993.76
2023-03-12T00:07:57.953Z,993.80
2023-03-12T00:08:57.965Z,993.77
2023-03-12T00:09:57.972Z,993.81
2023-03-12T00:10:57.916Z,993.81
2023-03-12T00:11:57.929Z,993.88
2023-03-12T00:12:57.942Z,993.90
2023-03-12T00:13:57.911Z,993.89
2023-03-12T00:14:57.872Z,993.92
2023-03-12T00:15:57.903Z,993.95
2023-03-12T00:16:57.876Z,993.95
2023-03-12T00:17:57.843Z,993.93
2023-03-12T00:18:57.832Z,993.95
2023-03-12T00:19:57.840Z,993.99
2023-03-12T00:20:57.828Z,993.99
2023-03-12T00:21:57.806Z,993.96
2023-03-12T00:22:57.814Z,993.96
2023-03-12T00:23:57.790Z,993.95
2023-03-12T00:24:57.764Z,993.97
2023-03-12T00:25:57.766Z,993.93
2023-03-12T00:26:57.740Z,993.96
2023-03-12T00:27:57.759Z,993.97
2023-03-12T00:28:57.749Z,993.96
2023-03-12T00:29:57.723Z,993.99
2023-03-12T00:30:57.828Z,994.00
2023-03-12T00:31:57.699Z,994.00
2023-03-12T00:32:57.719Z,994.04
2023-03-12T00:33:57.688Z,994.08
2023-03-12T00:34:57.673Z,994.09
2023-03-12T00:35:57.703Z,994.13
2023-03-12T00:36:57.655Z,994.08
2023-03-12T00:37:57.619Z,994.10
2023-03-12T00:38:57.640Z,994.12
2023-03-12T00:39:57.605Z,994.10
2023-03-12T00:40:57.602Z,994.14
2023-03-12T00:41:57.592Z,994.09
2023-03-12T00:42:57.585Z,994.11
2023-03-12T00:43:57.566Z,994.08
2023-03-12T00:44:57.595Z,994.08
2023-03-12T00:45:57.560Z,994.05
2023-03-12T00:46:57.653Z,994.06
2023-03-12T00:47:57.540Z,993.98
2023-03-12T00:48:57.522Z,993.98
2023-03-12T00:49:57.488Z,994.02
2023-03-12T00:50:57.480Z,993.96
2023-03-12T00:51:57.468Z,994.08
2023-03-12T00:52:57.470Z,994.00
2023-03-12T00:53:57.460Z,993.94
2023-03-12T00:54:57.442Z,994.01
2023-03-12T00:55:57.454Z,994.01
2023-03-12T00:56:57.436Z,994.02
2023-03-12T00:57:57.417Z,993.98
2023-03-12T00:58:57.389Z,993.98
2023-03-12T00:59:57.416Z,993.98
2023-03-12T01:00:57.464Z,993.98
2023-03-12T01:01:57.361Z,993.99
2023-03-12T01:02:57.374Z,993.96
2023-03-12T01:03:57.408Z,993.95
2023-03-12T01:04:57.322Z,993.97
2023-03-12T01:05:57.363Z,993.90
2023-03-12T01:07:48.253Z,993.92
2023-03-12T01:08:48.248Z,993.94
2023-03-12T01:09:48.246Z,993.92
2023-03-12T01:10:48.419Z,993.90
2023-03-12T01:11:50.138Z,993.89
2023-03-12T01:12:48.513Z,993.92
2023-03-12T01:13:48.429Z,993.90
2023-03-12T01:14:48.419Z,993.89
2023-03-12T01:15:48.357Z,993.86
2023-03-12T01:16:49.508Z,993.91
2023-03-12T01:17:48.252Z,993.84
2023-03-12T01:18:48.364Z,993.86
2023-03-12T01:19:48.241Z,993.90
2023-03-12T01:20:48.278Z,993.89
2023-03-12T01:21:48.281Z,993.86
2023-03-12T01:22:48.244Z,993.88
2023-03-12T01:23:48.259Z,993.80
2023-03-12T01:24:48.214Z,993.84
2023-03-12T01:25:48.421Z,993.86
2023-03-12T01:26:48.326Z,993.86
2023-03-12T01:27:48.237Z,993.85
2023-03-12T01:28:48.175Z,993.86
2023-03-12T01:29:48.194Z,993.82
2023-03-12T01:30:48.151Z,993.81
2023-03-12T01:31:48.200Z,993.81
2023-03-12T01:32:48.320Z,993.81
2023-03-12T01:33:48.326Z,993.79
2023-03-12T01:34:48.174Z,993.78
2023-03-12T01:35:48.142Z,993.74
2023-03-12T01:36:48.142Z,993.76
2023-03-12T01:37:48.092Z,993.76
2023-03-12T01:38:48.166Z,993.73
2023-03-12T01:39:48.084Z,993.78
2023-03-12T01:40:48.031Z,993.77
2023-03-12T01:41:48.171Z,993.77
2023-03-12T01:42:48.105Z,993.79
2023-03-12T01:43:48.013Z,993.80
2023-03-12T01:44:48.103Z,993.79
2023-03-12T01:45:48.077Z,993.78
2023-03-12T01:46:47.881Z,993.82
2023-03-12T01:47:47.953Z,993.79
2023-03-12T01:48:48.565Z,993.80
2023-03-12T01:49:47.977Z,993.79
2023-03-12T01:50:47.935Z,993.77
2023-03-12T01:51:47.877Z,993.82
2023-03-12T01:52:47.869Z,993.76
2023-03-12T01:53:47.918Z,993.77
2023-03-12T01:54:47.871Z,993.76
2023-03-12T01:55:47.878Z,993.74
2023-03-12T01:56:47.786Z,993.76
2023-03-12T01:57:47.873Z,993.74
2023-03-12T01:58:47.847Z,993.73
2023-03-12T01:59:47.814Z,993.73
2023-03-12T02:00:47.754Z,993.70
2023-03-12T02:01:47.790Z,993.74
2023-03-12T02:02:47.896Z,993.65
2023-03-12T02:03:47.929Z,993.70
2023-03-12T02:04:47.632Z,993.67
2023-03-12T02:05:47.756Z,993.62
2023-03-12T02:06:47.788Z,993.67
2023-03-12T02:07:47.706Z,993.64
2023-03-12T02:08:47.683Z,993.65
2023-03-12T02:09:47.673Z,993.63
2023-03-12T02:10:47.831Z,993.62
2023-03-12T02:11:47.694Z,993.63
2023-03-12T02:12:47.667Z,993.63
2023-03-12T02:13:47.626Z,993.61
2023-03-12T02:14:47.630Z,993.64
2023-03-12T02:15:47.570Z,993.59
2023-03-12T02:16:47.582Z,993.59
2023-03-12T02:17:47.671Z,993.59
2023-03-12T02:18:47.546Z,993.60
2023-03-12T02:19:47.629Z,993.58
2023-03-12T02:20:47.630Z,993.66
2023-03-12T02:21:47.565Z,993.66
2023-03-12T02:22:47.726Z,993.59
2023-03-12T02:23:47.601Z,993.60
2023-03-12T02:24:47.741Z,993.57
2023-03-12T02:25:47.524Z,993.55
2023-03-12T02:26:47.547Z,993.54
2023-03-12T02:27:47.665Z,993.56
2023-03-12T02:28:47.687Z,993.53
2023-03-12T02:29:47.460Z,993.51
2023-03-12T02:30:47.432Z,993.50
2023-03-12T02:31:47.987Z,993.54
2023-03-12T02:32:47.724Z,993.50
2023-03-12T02:33:47.480Z,993.49
2023-03-12T02:34:47.447Z,993.56
2023-03-12T02:35:47.442Z,993.53
2023-03-12T02:36:47.565Z,993.56
2023-03-12T02:37:47.420Z,993.59
2023-03-12T02:38:47.381Z,993.63
2023-03-12T02:39:47.390Z,993.62
2023-03-12T02:40:47.293Z,993.64
2023-03-12T02:41:47.369Z,993.62
2023-03-12T02:42:47.345Z,993.59
2023-03-12T02:43:47.485Z,993.57
2023-03-12T02:44:47.298Z,993.58
2023-03-12T02:45:47.332Z,993.56
2023-03-12T02:46:47.273Z,993.54
2023-03-12T02:47:47.201Z,993.53
2023-03-12T02:48:47.274Z,993.50
2023-03-12T02:49:47.143Z,993.50
2023-03-12T02:50:47.118Z,993.52
2023-03-12T02:51:47.402Z,993.52
2023-03-12T02:52:47.272Z,993.48
2023-03-12T02:53:47.188Z,993.48
2023-03-12T02:54:47.338Z,993.50
2023-03-12T02:55:47.277Z,993.48
2023-03-12T02:56:47.194Z,993.49
2023-03-12T02:57:47.251Z,993.48
2023-03-12T02:58:47.226Z,993.48
2023-03-12T02:59:47.170Z,993.43
2023-03-12T03:00:47.094Z,993.46
2023-03-12T03:01:47.174Z,993.45
2023-03-12T03:02:47.148Z,993.45
2023-03-12T03:03:47.111Z,993.44
2023-03-12T03:04:47.064Z,993.43
2023-03-12T03:05:47.204Z,993.47
2023-03-12T03:06:47.062Z,993.44
2023-03-12T03:07:46.981Z,993.48
2023-03-12T03:08:47.058Z,993.48
2023-03-12T03:09:47.495Z,993.49
2023-03-12T03:10:47.048Z,993.49
2023-03-12T03:11:47.070Z,993.46
2023-03-12T03:12:47.008Z,993.49
2023-03-12T03:13:47.014Z,993.46
2023-03-12T03:14:46.968Z,993.46
2023-03-12T03:15:47.122Z,993.45
2023-03-12T03:16:46.956Z,993.47
2023-03-12T03:17:46.926Z,993.46
2023-03-12T03:18:47.107Z,993.45
2023-03-12T03:19:46.932Z,993.51
2023-03-12T03:20:46.987Z,993.45
2023-03-12T03:21:46.878Z,993.48
2023-03-12T03:22:46.870Z,993.48
2023-03-12T03:23:46.957Z,993.50
2023-03-12T03:24:46.967Z,993.49
2023-03-12T03:25:46.875Z,993.48
2023-03-12T03:26:46.856Z,993.45
2023-03-12T03:27:46.843Z,993.45
2023-03-12T03:28:46.844Z,993.43
2023-03-12T03:29:46.877Z,993.39
2023-03-12T03:30:46.893Z,993.44
2023-03-12T03:31:46.849Z,993.46
2023-03-12T03:32:46.845Z,993.43
2023-03-12T03:33:47.010Z,993.45
2023-03-12T03:34:46.807Z,993.45
2023-03-12T03:35:46.859Z,993.45
2023-03-12T03:36:46.714Z,993.44
2023-03-12T03:37:46.775Z,993.49
2023-03-12T03:38:46.793Z,993.50
2023-03-12T03:39:46.625Z,993.45
2023-03-12T03:40:46.774Z,993.51
2023-03-12T03:41:46.875Z,993.50
2023-03-12T03:42:47.783Z,993.46
2023-03-12T03:43:46.550Z,993.48
2023-03-12T03:44:46.574Z,993.44
2023-03-12T03:45:46.684Z,993.47
2023-03-12T03:46:46.634Z,993.49
2023-03-12T03:47:46.653Z,993.48
2023-03-12T03:48:46.673Z,993.51
2023-03-12T03:49:46.734Z,993.45
2023-03-12T03:50:46.618Z,993.48
2023-03-12T03:51:46.636Z,993.50
2023-03-12T03:52:46.557Z,993.51
2023-03-12T03:53:46.555Z,993.52
2023-03-12T03:54:46.622Z,993.53
2023-03-12T03:55:46.586Z,993.53
2023-03-12T03:56:46.564Z,993.54
2023-03-12T03:57:46.559Z,993.50
2023-03-12T03:58:47.324Z,993.50
2023-03-12T03:59:46.524Z,993.50
2023-03-12T04:00:46.696Z,993.53
2023-03-12T04:01:46.527Z,993.48
2023-03-12T04:02:46.528Z,993.51
2023-03-12T04:03:46.476Z,993.49
2023-03-12T04:04:46.544Z,993.52
2023-03-12T04:05:46.432Z,993.47
2023-03-12T04:06:46.491Z,993.45
2023-03-12T04:07:46.446Z,993.45
2023-03-12T04:08:46.451Z,993.45
2023-03-12T04:09:46.380Z,993.44
2023-03-12T04:10:46.430Z,993.37
2023-03-12T04:11:46.568Z,993.37
2023-03-12T04:12:46.499Z,993.37
2023-03-12T04:13:46.493Z,993.36
2023-03-12T04:14:46.232Z,993.35
2023-03-12T04:15:46.322Z,993.36
2023-03-12T04:16:46.209Z,993.27
2023-03-12T04:17:46.387Z,993.35
2023-03-12T04:18:46.307Z,993.34
2023-03-12T04:19:46.276Z,993.33
2023-03-12T04:20:46.134Z,993.32
2023-03-12T04:21:46.756Z,993.36
2023-03-12T04:22:46.615Z,993.35
2023-03-12T04:23:46.493Z,993.36
2023-03-12T04:24:46.131Z,993.37
2023-03-12T04:25:46.281Z,993.33
2023-03-12T04:26:46.146Z,993.35
2023-03-12T04:27:46.055Z,993.36
2023-03-12T04:28:46.075Z,993.38
2023-03-12T04:29:46.071Z,993.42
2023-03-12T04:30:46.051Z,993.39
2023-03-12T04:31:46.703Z,993.38
2023-03-12T04:32:46.254Z,993.36
2023-03-12T04:33:46.573Z,993.36
2023-03-12T04:34:46.014Z,993.31
2023-03-12T04:35:45.993Z,993.33
2023-03-12T04:36:46.091Z,993.32
2023-03-12T04:37:46.045Z,993.33
2023-03-12T04:38:46.167Z,993.32
2023-03-12T04:39:46.062Z,993.32
2023-03-12T04:40:46.042Z,993.35
2023-03-12T04:41:46.087Z,993.36
2023-03-12T04:42:45.893Z,993.40
2023-03-12T04:43:47.234Z,993.38
2023-03-12T04:44:45.901Z,993.34
2023-03-12T04:45:46.137Z,993.35
2023-03-12T04:46:46.326Z,993.29
2023-03-12T04:47:45.834Z,993.25
2023-03-12T04:48:45.946Z,993.27
2023-03-12T04:49:45.935Z,993.27
2023-03-12T04:50:45.958Z,993.25
2023-03-12T04:51:45.911Z,993.27
2023-03-12T04:52:45.940Z,993.29
2023-03-12T04:53:46.110Z,993.25
2023-03-12T04:54:48.037Z,993.26
2023-03-12T04:55:46.269Z,993.24
2023-03-12T04:56:45.865Z,993.27
2023-03-12T04:57:45.735Z,993.21
2023-03-12T04:58:46.077Z,993.22
2023-03-12T04:59:45.867Z,993.23
2023-03-12T05:00:45.897Z,993.20
2023-03-12T05:01:45.806Z,993.19
2023-03-12T05:02:45.785Z,993.17
2023-03-12T05:03:45.878Z,993.12
2023-03-12T05:04:45.840Z,993.09
2023-03-12T05:05:45.946Z,993.13
2023-03-12T05:06:45.843Z,993.06
2023-03-12T05:07:45.787Z,993.07
2023-03-12T05:08:45.818Z,993.14
2023-03-12T05:09:45.921Z,993.17
2023-03-12T05:10:45.840Z,993.14
2023-03-12T05:11:45.772Z,993.21
2023-03-12T05:12:45.573Z,993.23
2023-03-12T05:13:45.965Z,993.24
2023-03-12T05:14:45.549Z,993.21
2023-03-12T05:15:45.721Z,993.19
2023-03-12T05:16:45.927Z,993.16
2023-03-12T05:17:45.540Z,993.20
2023-03-12T05:18:45.765Z,993.15
2023-03-12T05:19:45.626Z,993.15
2023-03-12T05:20:45.612Z,993.18
2023-03-12T05:21:45.472Z,993.18
2023-03-12T05:22:45.903Z,993.11
2023-03-12T05:23:45.446Z,993.14
2023-03-12T05:24:45.446Z,993.08
2023-03-12T05:25:45.452Z,993.09
2023-03-12T05:26:45.550Z,993.09
2023-03-12T05:27:45.744Z,993.09
2023-03-12T05:28:45.404Z,993.11
2023-03-12T05:29:45.609Z,993.11
2023-03-12T05:30:45.399Z,993.09
2023-03-12T05:31:45.594Z,993.16
2023-03-12T05:32:45.489Z,993.12
2023-03-12T05:33:45.427Z,993.15
2023-03-12T05:34:45.435Z,993.09
2023-03-12T05:35:45.448Z,993.07
2023-03-12T05:36:45.632Z,993.09
2023-03-12T05:37:45.406Z,993.04
2023-03-12T05:38:45.431Z,993.09
2023-03-12T05:39:45.520Z,993.08
2023-03-12T05:40:45.399Z,993.07
2023-03-12T05:41:45.420Z,993.10
2023-03-12T05:42:45.444Z,993.06
2023-03-12T05:43:45.236Z,993.08
2023-03-12T05:44:45.396Z,993.11
2023-03-12T05:45:45.401Z,993.12
2023-03-12T05:46:45.331Z,993.06
2023-03-12T05:47:45.417Z,993.03
2023-03-12T05:48:45.216Z,993.03
2023-03-12T05:49:45.308Z,992.98
2023-03-12T05:50:45.166Z,993.04
2023-03-12T05:51:45.401Z,992.98
2023-03-12T05:52:45.279Z,992.98
2023-03-12T05:53:45.238Z,992.99
2023-03-12T05:54:45.277Z,992.98
2023-03-12T05:55:45.239Z,992.97
2023-03-12T05:56:45.220Z,993.03
2023-03-12T05:57:45.220Z,992.97
2023-03-12T05:58:45.388Z,992.94
2023-03-12T05:59:45.178Z,992.93
2023-03-12T06:00:45.187Z,992.92
2023-03-12T06:01:45.162Z,992.90
2023-03-12T06:02:45.164Z,992.96
2023-03-12T06:03:45.514Z,992.93
2023-03-12T06:04:45.149Z,992.93
2023-03-12T06:05:45.223Z,992.92
2023-03-12T06:06:45.046Z,992.88
2023-03-12T06:07:45.116Z,992.89
2023-03-12T06:08:45.151Z,992.85
2023-03-12T06:09:45.006Z,992.86
2023-03-12T06:10:45.217Z,992.88
2023-03-12T06:11:45.641Z,992.86
2023-03-12T06:12:45.102Z,992.83
2023-03-12T06:13:45.028Z,992.84
2023-03-12T06:14:45.064Z,992.88
2023-03-12T06:15:45.134Z,992.80
2023-03-12T06:16:45.021Z,992.78
2023-03-12T06:17:45.034Z,992.81
2023-03-12T06:18:45.024Z,992.82
2023-03-12T06:19:45.178Z,992.79
2023-03-12T06:20:44.891Z,992.78
2023-03-12T06:21:45.054Z,992.77
2023-03-12T06:22:44.997Z,992.78
2023-03-12T06:23:44.987Z,992.82
2023-03-12T06:24:44.948Z,992.81
2023-03-12T06:25:45.047Z,992.86
2023-03-12T06:26:44.886Z,992.82
2023-03-12T06:27:44.784Z,992.81
2023-03-12T06:28:45.104Z,992.82
2023-03-12T06:29:44.897Z,992.74
2023-03-12T06:30:44.853Z,992.76
2023-03-12T06:31:44.944Z,992.78
2023-03-12T06:32:44.901Z,992.82
2023-03-12T06:33:44.858Z,992.79
2023-03-12T06:34:44.855Z,992.84
2023-03-12T06:35:44.810Z,992.81
2023-03-12T06:36:44.957Z,992.82
2023-03-12T06:37:44.827Z,992.88
2023-03-12T06:38:44.762Z,992.83
2023-03-12T06:39:44.738Z,992.82
2023-03-12T06:40:44.725Z,992.76
2023-03-12T06:41:44.881Z,992.77
2023-03-12T06:42:44.718Z,992.76
2023-03-12T06:43:44.793Z,992.79
2023-03-12T06:44:44.704Z,992.71
2023-03-12T06:45:44.682Z,992.71
2023-03-12T06:46:44.868Z,992.68
2023-03-12T06:47:44.708Z,992.69
2023-03-12T06:48:44.682Z,992.65
2023-03-12T06:49:44.558Z,992.64
2023-03-12T06:50:44.617Z,992.64
2023-03-12T06:51:44.484Z,992.63
2023-03-12T06:52:44.874Z,992.58
2023-03-12T06:53:44.703Z,992.59
2023-03-12T06:54:44.599Z,992.53
2023-03-12T06:55:44.441Z,992.56
2023-03-12T06:56:44.432Z,992.50
2023-03-12T06:57:44.433Z,992.49
2023-03-12T06:58:44.419Z,992.45
2023-03-12T06:59:44.418Z,992.44
2023-03-12T07:00:44.389Z,992.43
2023-03-12T07:01:44.379Z,992.42
2023-03-12T07:02:44.369Z,992.37
2023-03-12T07:03:44.409Z,992.43
2023-03-12T07:04:44.396Z,992.39
2023-03-12T07:05:44.340Z,992.38
2023-03-12T07:06:44.325Z,992.32
2023-03-12T07:07:52.905Z,992.31
2023-03-12T07:08:44.338Z,992.35
2023-03-12T07:09:44.303Z,992.32
2023-03-12T07:10:44.315Z,992.32
2023-03-12T07:11:44.297Z,992.30
2023-03-12T07:12:44.264Z,992.35
2023-03-12T07:13:44.253Z,992.30
2023-03-12T07:14:44.272Z,992.25
2023-03-12T07:15:44.273Z,992.28
2023-03-12T07:16:44.217Z,992.28
2023-03-12T07:17:44.241Z,992.26
2023-03-12T07:18:44.235Z,992.23
2023-03-12T07:19:44.185Z,992.29
2023-03-12T07:20:44.187Z,992.30
2023-03-12T07:21:44.179Z,992.32
2023-03-12T07:22:44.169Z,992.26
2023-03-12T07:23:44.194Z,992.29
2023-03-12T07:24:44.134Z,992.30
2023-03-12T07:25:44.126Z,992.32
2023-03-12T07:26:44.103Z,992.21
2023-03-12T07:27:44.117Z,992.24
2023-03-12T07:28:44.145Z,992.19
2023-03-12T07:29:44.127Z,992.18
2023-03-12T07:30:44.071Z,992.16
2023-03-12T07:31:44.173Z,992.15
2023-03-12T07:32:44.058Z,992.10
2023-03-12T07:33:44.205Z,992.05
2023-03-12T07:34:44.043Z,992.10
2023-03-12T07:35:44.080Z,992.11
2023-03-12T07:36:44.138Z,992.16
2023-03-12T07:37:44.008Z,992.12
2023-03-12T07:38:43.999Z,992.12
2023-03-12T07:39:44.017Z,992.13
2023-03-12T07:40:44.026Z,992.09
2023-03-12T07:41:44.670Z,992.11
2023-03-12T07:42:43.926Z,992.10
2023-03-12T07:43:44.483Z,992.06
2023-03-12T07:44:43.907Z,992.08
2023-03-12T07:45:44.410Z,992.07
2023-03-12T07:46:44.483Z,992.11
2023-03-12T07:47:44.677Z,992.06
2023-03-12T07:48:44.465Z,992.05
2023-03-12T07:49:44.406Z,992.04
2023-03-12T07:50:44.424Z,992.05
2023-03-12T07:51:43.844Z,992.05
2023-03-12T07:52:44.453Z,992.06
2023-03-12T07:53:44.327Z,992.07
2023-03-12T07:54:43.825Z,992.06
2023-03-12T07:55:43.940Z,992.02
2023-03-12T07:56:43.914Z,992.04
2023-03-12T07:57:44.371Z,992.06
2023-03-12T07:58:43.856Z,992.08
2023-03-12T07:59:44.464Z,992.06
2023-03-12T08:00:44.429Z,992.10
2023-03-12T08:01:46.257Z,992.11
2023-03-12T08:02:43.925Z,992.06
2023-03-12T08:03:43.945Z,992.05
2023-03-12T08:04:44.275Z,992.04
2023-03-12T08:05:43.738Z,991.99
2023-03-12T08:06:43.729Z,992.01
2023-03-12T08:07:44.080Z,991.99
2023-03-12T08:08:44.252Z,991.99
2023-03-12T08:09:44.214Z,992.03
2023-03-12T08:10:44.081Z,992.00
2023-03-12T08:11:43.676Z,991.97
2023-03-12T08:12:44.272Z,991.99
2023-03-12T08:13:44.340Z,991.94
2023-03-12T08:14:44.064Z,991.95
2023-03-12T08:15:43.572Z,991.93
2023-03-12T08:16:44.302Z,991.98
2023-03-12T08:17:44.099Z,991.94
2023-03-12T08:18:43.551Z,991.93
2023-03-12T08:19:44.133Z,991.99
2023-03-12T08:20:44.020Z,991.98
2023-03-12T08:21:44.055Z,992.01
2023-03-12T08:22:44.041Z,991.98
2023-03-12T08:23:44.168Z,991.94
2023-03-12T08:24:44.155Z,991.94
2023-03-12T08:25:43.481Z,992.00
2023-03-12T08:26:43.442Z,991.93
2023-03-12T08:27:43.469Z,991.92
2023-03-12T08:28:43.417Z,991.89
2023-03-12T08:29:43.414Z,991.88
2023-03-12T08:30:43.400Z,991.84
2023-03-12T08:31:57.355Z,991.82
2023-03-12T08:32:44.424Z,991.80
2023-03-12T08:33:43.380Z,991.83
2023-03-12T08:34:43.403Z,991.82
2023-03-12T08:35:43.457Z,991.78
2023-03-12T08:36:43.452Z,991.75
2023-03-12T08:37:43.338Z,991.73
2023-03-12T08:38:43.357Z,991.71
2023-03-12T08:39:43.302Z,991.66
2023-03-12T08:40:43.294Z,991.76
2023-03-12T08:41:43.280Z,991.72
2023-03-12T08:42:43.311Z,991.84
2023-03-12T08:43:43.312Z,991.78
2023-03-12T08:44:43.247Z,991.81
2023-03-12T08:45:43.283Z,991.86
2023-03-12T08:46:43.244Z,991.80
2023-03-12T08:47:43.224Z,991.81
2023-03-12T08:48:43.206Z,991.82
2023-03-12T08:49:43.225Z,991.75
2023-03-12T08:50:43.178Z,991.76
2023-03-12T08:51:43.174Z,991.81
2023-03-12T08:52:43.186Z,991.76
2023-03-12T08:53:43.153Z,991.80
2023-03-12T08:54:43.148Z,991.79
2023-03-12T08:55:43.128Z,991.80
2023-03-12T08:56:43.114Z,991.80
2023-03-12T08:57:43.135Z,991.79
2023-03-12T08:58:43.094Z,991.75
2023-03-12T08:59:43.116Z,991.76
2023-03-12T09:00:43.075Z,991.73
2023-03-12T09:01:43.968Z,991.75
2023-03-12T09:02:43.077Z,991.69
2023-03-12T09:03:43.077Z,991.70
2023-03-12T09:04:43.114Z,991.65
2023-03-12T09:05:43.028Z,991.65
2023-03-12T09:06:43.045Z,991.65
2023-03-12T09:07:43.003Z,991.62
2023-03-12T09:08:42.982Z,991.58
2023-03-12T09:09:43.064Z,991.58
2023-03-12T09:10:42.967Z,991.59
2023-03-12T09:11:42.962Z,991.52
2023-03-12T09:12:42.969Z,991.54
2023-03-12T09:14:02.730Z,991.52
2023-03-12T09:15:03.088Z,991.51
2023-03-12T09:15:43.933Z,991.50
2023-03-12T09:16:43.014Z,991.49
2023-03-12T09:17:42.922Z,991.53
2023-03-12T09:18:42.912Z,991.50
2023-03-12T09:19:42.910Z,991.48
2023-03-12T09:20:42.872Z,991.47
2023-03-12T09:21:42.842Z,991.49
2023-03-12T09:22:42.876Z,991.52
2023-03-12T09:23:42.815Z,991.50
2023-03-12T09:24:42.800Z,991.52
2023-03-12T09:25:42.798Z,991.51
2023-03-12T09:26:42.786Z,991.44
2023-03-12T09:27:42.797Z,991.42
2023-03-12T09:28:42.780Z,991.43
2023-03-12T09:29:58.812Z,991.35
2023-03-12T09:30:43.779Z,991.35
2023-03-12T09:31:42.787Z,991.37
2023-03-12T09:32:42.731Z,991.32
2023-03-12T09:33:42.705Z,991.36
2023-03-12T09:34:42.694Z,991.34
2023-03-12T09:35:42.744Z,991.33
2023-03-12T09:36:42.689Z,991.31
2023-03-12T09:37:42.670Z,991.26
2023-03-12T09:38:42.680Z,991.28
2023-03-12T09:39:42.667Z,991.25
2023-03-12T09:40:42.633Z,991.22
2023-03-12T09:41:42.647Z,991.13
2023-03-12T09:42:42.613Z,991.18
2023-03-12T09:43:42.625Z,991.22
2023-03-12T09:44:42.622Z,991.25
2023-03-12T09:45:42.582Z,991.27
2023-03-12T09:46:42.575Z,991.27
2023-03-12T09:47:42.594Z,991.25
2023-03-12T09:48:42.547Z,991.24
2023-03-12T09:49:42.528Z,991.25
2023-03-12T09:50:42.533Z,991.24
2023-03-12T09:51:42.515Z,991.24
2023-03-12T09:52:42.650Z,991.21
2023-03-12T09:53:42.501Z,991.19
2023-03-12T09:54:42.514Z,991.22
2023-03-12T09:55:42.483Z,991.19
2023-03-12T09:56:42.473Z,991.20
2023-03-12T09:57:42.443Z,991.17
2023-03-12T09:58:42.436Z,991.15
2023-03-12T09:59:42.447Z,991.23
2023-03-12T10:00:42.417Z,991.21
2023-03-12T10:01:42.407Z,991.24
2023-03-12T10:02:42.392Z,991.29
2023-03-12T10:03:42.505Z,991.21
2023-03-12T10:04:56.613Z,991.24
2023-03-12T10:05:43.382Z,991.27
2023-03-12T10:06:42.341Z,991.20
2023-03-12T10:07:42.345Z,991.26
2023-03-12T10:08:42.336Z,991.25
2023-03-12T10:09:42.307Z,991.27
2023-03-12T10:10:42.293Z,991.22
2023-03-12T10:11:42.297Z,991.20
2023-03-12T10:12:42.305Z,991.21
2023-03-12T10:13:42.284Z,991.19
2023-03-12T10:14:42.269Z,991.16
2023-03-12T10:15:42.273Z,991.19
2023-03-12T10:16:42.229Z,991.16
2023-03-12T10:17:42.321Z,991.14
2023-03-12T10:18:42.299Z,991.17
2023-03-12T10:19:42.218Z,991.10
2023-03-12T10:20:42.183Z,991.08
2023-03-12T10:21:42.172Z,991.09
2023-03-12T10:22:42.155Z,991.06
2023-03-12T10:23:42.193Z,991.01
2023-03-12T10:24:42.141Z,991.05
2023-03-12T10:25:42.138Z,991.03
2023-03-12T10:26:42.114Z,990.97
2023-03-12T10:27:42.148Z,991.07
2023-03-12T10:28:42.143Z,991.14
2023-03-12T10:29:44.683Z,991.17
2023-03-12T10:30:42.202Z,991.21
2023-03-12T10:31:42.118Z,991.14
2023-03-12T10:32:42.112Z,991.17
2023-03-12T10:33:42.096Z,991.16
2023-03-12T10:34:42.060Z,991.13
2023-03-12T10:35:42.142Z,991.14
2023-03-12T10:36:42.022Z,991.03
2023-03-12T10:37:42.063Z,991.09
2023-03-12T10:38:41.991Z,991.11
2023-03-12T10:39:42.043Z,991.13
2023-03-12T10:40:42.025Z,991.15
2023-03-12T10:41:41.989Z,991.16
2023-03-12T10:42:42.000Z,991.20
2023-03-12T10:43:41.926Z,991.20
2023-03-12T10:44:41.916Z,991.18
2023-03-12T10:45:41.909Z,991.20
2023-03-12T10:46:41.981Z,991.15
2023-03-12T10:47:41.892Z,991.18
2023-03-12T10:48:41.882Z,991.20
2023-03-12T10:49:41.896Z,991.14
2023-03-12T10:50:41.851Z,991.19
2023-03-12T10:51:41.873Z,991.18
2023-03-12T10:52:41.844Z,991.12
2023-03-12T10:53:41.842Z,991.17
2023-03-12T10:54:41.802Z,991.19
2023-03-12T10:55:41.797Z,991.16
2023-03-12T10:56:41.785Z,991.17
2023-03-12T10:57:41.780Z,991.18
2023-03-12T10:58:41.818Z,991.15
2023-03-12T10:59:41.755Z,991.08
2023-03-12T11:00:41.748Z,991.05
2023-03-12T11:01:41.793Z,990.92
2023-03-12T11:02:41.796Z,990.96
2023-03-12T11:03:41.699Z,990.98
2023-03-12T11:04:41.723Z,990.91
2023-03-12T11:05:41.717Z,990.93
2023-03-12T11:06:41.676Z,990.88
2023-03-12T11:07:41.672Z,990.91
2023-03-12T11:08:41.665Z,990.91
2023-03-12T11:09:41.638Z,990.92
2023-03-12T11:10:41.641Z,990.90
2023-03-12T11:11:41.622Z,990.86
2023-03-12T11:12:41.626Z,990.90
2023-03-12T11:13:41.609Z,990.86
2023-03-12T11:14:41.601Z,990.91
2023-03-12T11:15:41.685Z,990.80
2023-03-12T11:16:41.582Z,990.78
2023-03-12T11:17:41.621Z,990.74
2023-03-12T11:18:41.556Z,990.79
2023-03-12T11:19:41.553Z,990.77
2023-03-12T11:20:41.519Z,990.80
2023-03-12T11:21:41.521Z,990.84
2023-03-12T11:22:41.503Z,990.87
2023-03-12T11:23:41.568Z,990.81
2023-03-12T11:24:41.473Z,990.84
2023-03-12T11:25:41.478Z,990.81
2023-03-12T11:26:41.447Z,990.89
2023-03-12T11:27:41.440Z,990.82
2023-03-12T11:28:41.450Z,990.88
2023-03-12T11:29:41.471Z,990.79
2023-03-12T11:30:41.440Z,990.87
2023-03-12T11:31:41.496Z,990.82
2023-03-12T11:32:41.489Z,990.76
2023-03-12T11:33:41.386Z,990.74
2023-03-12T11:34:41.403Z,990.74
2023-03-12T11:35:41.411Z,990.71
2023-03-12T11:36:41.362Z,990.72
2023-03-12T11:37:41.348Z,990.74
2023-03-12T11:38:41.355Z,990.68
2023-03-12T11:39:41.357Z,990.66
2023-03-12T11:40:41.297Z,990.65
2023-03-12T11:41:41.287Z,990.69
2023-03-12T11:42:41.316Z,990.65
2023-03-12T11:43:43.883Z,990.65
2023-03-12T11:44:41.288Z,990.69
2023-03-12T11:45:41.265Z,990.74
2023-03-12T11:46:41.272Z,990.65
2023-03-12T11:47:41.263Z,990.63
2023-03-12T11:48:42.588Z,990.58
2023-03-12T11:49:41.198Z,990.56
2023-03-12T11:50:41.202Z,990.61
2023-03-12T11:51:41.212Z,990.62
2023-03-12T11:52:41.168Z,990.61
2023-03-12T11:53:41.156Z,990.60
2023-03-12T11:54:41.184Z,990.57
2023-03-12T11:55:41.422Z,990.56
2023-03-12T11:56:41.125Z,990.54
2023-03-12T11:57:41.107Z,990.56
2023-03-12T11:58:41.105Z,990.50
2023-03-12T11:59:41.128Z,990.50
2023-03-12T12:00:41.077Z,990.51
2023-03-12T12:01:41.145Z,990.48
2023-03-12T12:02:41.146Z,990.44
2023-03-12T12:03:41.044Z,990.36
2023-03-12T12:04:41.097Z,990.37
2023-03-12T12:05:41.031Z,990.38
2023-03-12T12:06:41.008Z,990.36
2023-03-12T12:07:41.189Z,990.35
2023-03-12T12:08:41.016Z,990.34
2023-03-12T12:09:40.995Z,990.30
2023-03-12T12:10:40.978Z,990.19
2023-03-12T12:11:40.986Z,990.15
2023-03-12T12:12:40.947Z,990.15
2023-03-12T12:13:40.995Z,990.03
2023-03-12T12:14:40.924Z,990.04
2023-03-12T12:15:40.926Z,990.03
2023-03-12T12:16:40.922Z,990.04
2023-03-12T12:17:40.912Z,989.99
2023-03-12T12:18:40.880Z,990.08
2023-03-12T12:19:40.862Z,990.00
2023-03-12T12:20:40.856Z,990.01
2023-03-12T12:21:40.846Z,989.98
2023-03-12T12:22:40.884Z,990.07
2023-03-12T12:23:40.839Z,989.99
2023-03-12T12:24:40.836Z,990.01
2023-03-12T12:25:40.798Z,990.04
2023-03-12T12:26:40.793Z,990.03
2023-03-12T12:27:40.820Z,990.07
2023-03-12T12:28:40.777Z,990.04
2023-03-12T12:29:40.757Z,990.07